sensor_id;sensor_type;location;lat;lon;timestamp;pressure;altitude;pressure_sealevel;temperature;humidity
19208;BME280;9737;59.466;18.036;2023-10-19T00:01:55;94082.66;;;1.83;72.30
19208;BME280;9737;59.466;18.036;2023-10-19T00:04:25;94112.38;;;1.95;72.04
19208;BME280;9737;59.466;18.036;2023-10-19T00:06:53;94100.31;;;1.94;72.18
19208;BME280;9737;59.466;18.036;2023-10-19T00:09:20;94087.84;;;1.90;72.26
19208;BME280;9737;59.466;18.036;2023-10-19T00:11:49;94060.13;;;1.82;72.33
19208;BME280;9737;59.466;18.036;2023-10-19T00:14:18;94065.94;;;1.84;72.11
19208;BME280;9737;59.466;18.036;2023-10-19T00:16:47;94107.13;;;1.95;72.63
19208;BME280;9737;59.466;18.036;2023-10-19T00:19:17;94125.63;;;2.00;72.26
19208;BME280;9737;59.466;18.036;2023-10-19T00:21:47;94113.44;;;1.88;72.38
19208;BME280;9737;59.466;18.036;2023-10-19T00:24:18;94111.38;;;1.96;72.41
19208;BME280;9737;59.466;18.036;2023-10-19T00:26:50;94070.16;;;1.85;72.71
19208;BME280;9737;59.466;18.036;2023-10-19T00:29:20;94066.53;;;1.86;72.54
19208;BME280;9737;59.466;18.036;2023-10-19T00:31:57;94030.59;;;1.75;72.60
19208;BME280;9737;59.466;18.036;2023-10-19T00:34:27;94013.09;;;1.69;72.25
19208;BME280;9737;59.466;18.036;2023-10-19T00:36:56;94027.34;;;1.73;72.78
19208;BME280;9737;59.466;18.036;2023-10-19T00:39:28;94058.53;;;1.81;72.78
19208;BME280;9737;59.466;18.036;2023-10-19T00:42:08;94061.16;;;1.81;72.98
19208;BME280;9737;59.466;18.036;2023-10-19T00:44:36;94071.81;;;1.79;72.66
19208;BME280;9737;59.466;18.036;2023-10-19T00:47:09;94122.44;;;1.98;72.93
19208;BME280;9737;59.466;18.036;2023-10-19T00:49:40;94137.72;;;2.01;72.71
19208;BME280;9737;59.466;18.036;2023-10-19T00:52:10;94134.28;;;2.01;72.98
19208;BME280;9737;59.466;18.036;2023-10-19T00:54:40;94126.06;;;1.97;72.86
19208;BME280;9737;59.466;18.036;2023-10-19T00:57:19;94079.03;;;1.84;73.38
19208;BME280;9737;59.466;18.036;2023-10-19T00:59:59;94028.38;;;1.72;72.86
19208;BME280;9737;59.466;18.036;2023-10-19T01:02:38;93987.03;;;1.55;73.12
19208;BME280;9737;59.466;18.036;2023-10-19T01:05:10;93967.72;;;1.57;73.13
19208;BME280;9737;59.466;18.036;2023-10-19T01:07:40;94001.44;;;1.65;73.28
19208;BME280;9737;59.466;18.036;2023-10-19T01:10:10;93995.84;;;1.61;72.89
19208;BME280;9737;59.466;18.036;2023-10-19T01:12:40;94009.09;;;1.66;73.14
19208;BME280;9737;59.466;18.036;2023-10-19T01:15:11;94014.09;;;1.68;73.41
19208;BME280;9737;59.466;18.036;2023-10-19T01:17:44;94026.75;;;1.71;73.38
19208;BME280;9737;59.466;18.036;2023-10-19T01:20:14;94038.44;;;1.75;73.14
19208;BME280;9737;59.466;18.036;2023-10-19T01:22:54;94039.03;;;1.77;73.28
19208;BME280;9737;59.466;18.036;2023-10-19T01:25:44;94043.25;;;1.78;73.50
19208;BME280;9737;59.466;18.036;2023-10-19T01:28:17;94030.97;;;1.72;73.67
19208;BME280;9737;59.466;18.036;2023-10-19T01:30:45;94061.72;;;1.83;73.73
19208;BME280;9737;59.466;18.036;2023-10-19T01:33:19;94040.03;;;1.76;73.48
19208;BME280;9737;59.466;18.036;2023-10-19T01:35:48;94030.41;;;1.70;73.80
19208;BME280;9737;59.466;18.036;2023-10-19T01:38:35;94008.28;;;1.66;73.48
19208;BME280;9737;59.466;18.036;2023-10-19T01:41:04;93997.44;;;1.62;73.81
19208;BME280;9737;59.466;18.036;2023-10-19T01:43:34;93946.25;;;1.48;73.63
19208;BME280;9737;59.466;18.036;2023-10-19T01:46:07;93923.53;;;1.42;73.39
19208;BME280;9737;59.466;18.036;2023-10-19T01:48:39;93842.31;;;1.12;73.78
19208;BME280;9737;59.466;18.036;2023-10-19T01:51:09;93843.66;;;1.21;73.76
19208;BME280;9737;59.466;18.036;2023-10-19T01:53:38;93792.97;;;0.97;73.49
19208;BME280;9737;59.466;18.036;2023-10-19T01:56:10;93807.56;;;1.05;74.08
19208;BME280;9737;59.466;18.036;2023-10-19T01:58:37;93769.00;;;1.00;73.64
19208;BME280;9737;59.466;18.036;2023-10-19T02:01:07;93791.91;;;1.05;73.52
19208;BME280;9737;59.466;18.036;2023-10-19T02:03:35;93833.63;;;1.18;73.44
19208;BME280;9737;59.466;18.036;2023-10-19T02:06:09;93850.13;;;1.18;73.60
19208;BME280;9737;59.466;18.036;2023-10-19T02:08:48;93916.13;;;1.39;74.20
19208;BME280;9737;59.466;18.036;2023-10-19T02:11:19;93941.22;;;1.46;73.91
19208;BME280;9737;59.466;18.036;2023-10-19T02:13:50;93955.47;;;1.50;74.05
19208;BME280;9737;59.466;18.036;2023-10-19T02:16:17;93995.84;;;1.61;74.49
19208;BME280;9737;59.466;18.036;2023-10-19T02:18:49;93991.69;;;1.53;74.16
19208;BME280;9737;59.466;18.036;2023-10-19T02:21:17;94022.34;;;1.71;74.16
19208;BME280;9737;59.466;18.036;2023-10-19T02:23:50;94049.31;;;1.72;74.08
19208;BME280;9737;59.466;18.036;2023-10-19T02:26:18;94049.94;;;1.74;74.23
19208;BME280;9737;59.466;18.036;2023-10-19T02:28:47;94028.63;;;1.64;74.17
19208;BME280;9737;59.466;18.036;2023-10-19T02:31:17;94038.84;;;1.72;74.21
19208;BME280;9737;59.466;18.036;2023-10-19T02:33:47;94043.66;;;1.75;74.16
19208;BME280;9737;59.466;18.036;2023-10-19T02:36:19;94021.16;;;1.67;74.63
19208;BME280;9737;59.466;18.036;2023-10-19T02:38:47;94028.78;;;1.69;74.47
19208;BME280;9737;59.466;18.036;2023-10-19T02:41:20;94023.56;;;1.69;74.43
19208;BME280;9737;59.466;18.036;2023-10-19T02:43:47;94021.97;;;1.68;74.41
19208;BME280;9737;59.466;18.036;2023-10-19T02:46:28;93927.50;;;1.26;74.38
19208;BME280;9737;59.466;18.036;2023-10-19T02:48:55;93911.09;;;1.37;74.74
19208;BME280;9737;59.466;18.036;2023-10-19T02:51:23;93842.28;;;1.18;74.70
19208;BME280;9737;59.466;18.036;2023-10-19T02:53:50;93789.50;;;1.03;74.62
19208;BME280;9737;59.466;18.036;2023-10-19T02:56:19;93713.88;;;0.83;74.20
19208;BME280;9737;59.466;18.036;2023-10-19T02:58:47;93669.59;;;0.70;74.71
19208;BME280;9737;59.466;18.036;2023-10-19T03:01:17;93608.63;;;0.58;74.75
19208;BME280;9737;59.466;18.036;2023-10-19T03:03:50;93630.91;;;0.60;74.43
19208;BME280;9737;59.466;18.036;2023-10-19T03:06:20;93655.94;;;0.68;74.97
19208;BME280;9737;59.466;18.036;2023-10-19T03:08:48;93629.09;;;0.61;74.47
19208;BME280;9737;59.466;18.036;2023-10-19T03:11:23;93570.88;;;0.36;74.50
19208;BME280;9737;59.466;18.036;2023-10-19T03:13:50;93562.75;;;0.44;74.77
19208;BME280;9737;59.466;18.036;2023-10-19T03:16:18;93537.94;;;0.35;75.02
19208;BME280;9737;59.466;18.036;2023-10-19T03:18:46;93528.50;;;0.34;74.95
19208;BME280;9737;59.466;18.036;2023-10-19T03:21:14;93487.66;;;0.21;74.61
19208;BME280;9737;59.466;18.036;2023-10-19T03:23:41;93473.22;;;0.18;74.58
19208;BME280;9737;59.466;18.036;2023-10-19T03:26:09;93455.81;;;0.12;74.74
19208;BME280;9737;59.466;18.036;2023-10-19T03:28:50;93457.63;;;0.12;74.79
19208;BME280;9737;59.466;18.036;2023-10-19T03:31:23;93435.38;;;0.09;74.68
19208;BME280;9737;59.466;18.036;2023-10-19T03:33:52;93438.00;;;0.09;74.79
19208;BME280;9737;59.466;18.036;2023-10-19T03:36:24;93420.81;;;0.02;75.03
19208;BME280;9737;59.466;18.036;2023-10-19T03:38:52;93442.19;;;0.10;74.80
19208;BME280;9737;59.466;18.036;2023-10-19T03:41:20;93455.81;;;0.12;74.95
19208;BME280;9737;59.466;18.036;2023-10-19T03:43:53;93473.22;;;0.18;75.00
19208;BME280;9737;59.466;18.036;2023-10-19T03:46:24;93511.69;;;0.29;75.22
19208;BME280;9737;59.466;18.036;2023-10-19T03:48:56;93536.56;;;0.32;75.37
19208;BME280;9737;59.466;18.036;2023-10-19T03:51:30;93537.13;;;0.34;75.37
19208;BME280;9737;59.466;18.036;2023-10-19T03:54:07;93501.84;;;0.25;75.41
19208;BME280;9737;59.466;18.036;2023-10-19T03:56:48;93484.81;;;0.22;75.37
19208;BME280;9737;59.466;18.036;2023-10-19T03:59:18;93441.63;;;0.08;75.00
19208;BME280;9737;59.466;18.036;2023-10-19T04:01:48;93374.78;;;-0.11;75.20
19208;BME280;9737;59.466;18.036;2023-10-19T04:04:16;93332.75;;;-0.21;75.13
19208;BME280;9737;59.466;18.036;2023-10-19T04:06:44;93289.34;;;-0.34;75.32
19208;BME280;9737;59.466;18.036;2023-10-19T04:09:15;93267.31;;;-0.38;75.43
19208;BME280;9737;59.466;18.036;2023-10-19T04:11:45;93203.38;;;-0.59;75.29
19208;BME280;9737;59.466;18.036;2023-10-19T04:14:17;93178.78;;;-0.63;75.17
19208;BME280;9737;59.466;18.036;2023-10-19T04:16:47;93192.38;;;-0.61;75.26
19208;BME280;9737;59.466;18.036;2023-10-19T04:19:16;93157.66;;;-0.73;75.05
19208;BME280;9737;59.466;18.036;2023-10-19T04:21:44;93158.66;;;-0.74;75.40
19208;BME280;9737;59.466;18.036;2023-10-19T04:24:13;93118.88;;;-0.81;75.47
19208;BME280;9737;59.466;18.036;2023-10-19T04:26:41;93119.88;;;-0.82;74.99
19208;BME280;9737;59.466;18.036;2023-10-19T04:29:09;93065.09;;;-0.94;75.39
19208;BME280;9737;59.466;18.036;2023-10-19T04:31:39;93008.66;;;-1.12;75.43
19208;BME280;9737;59.466;18.036;2023-10-19T04:34:17;92979.03;;;-1.17;75.49
19208;BME280;9737;59.466;18.036;2023-10-19T04:36:47;92971.47;;;-1.19;75.45
19208;BME280;9737;59.466;18.036;2023-10-19T04:39:15;92923.75;;;-1.31;75.26
19208;BME280;9737;59.466;18.036;2023-10-19T04:41:46;92896.47;;;-1.40;75.65
19208;BME280;9737;59.466;18.036;2023-10-19T04:44:16;92868.13;;;-1.48;75.32
19208;BME280;9737;59.466;18.036;2023-10-19T04:46:45;92831.44;;;-1.59;75.52
19208;BME280;9737;59.466;18.036;2023-10-19T04:49:13;92876.50;;;-1.46;75.49
19208;BME280;9737;59.466;18.036;2023-10-19T04:51:43;92846.59;;;-1.56;75.60
19208;BME280;9737;59.466;18.036;2023-10-19T04:54:11;92821.47;;;-1.62;75.41
19208;BME280;9737;59.466;18.036;2023-10-19T04:56:38;92833.03;;;-1.58;75.41
19208;BME280;9737;59.466;18.036;2023-10-19T04:59:06;92871.28;;;-1.46;75.66
19208;BME280;9737;59.466;18.036;2023-10-19T05:01:34;92943.94;;;-1.27;75.49
19208;BME280;9737;59.466;18.036;2023-10-19T05:04:05;92949.94;;;-1.26;75.75
19208;BME280;9737;59.466;18.036;2023-10-19T05:06:33;92989.84;;;-1.14;75.50
19208;BME280;9737;59.466;18.036;2023-10-19T05:09:01;93056.94;;;-0.98;75.82
19208;BME280;9737;59.466;18.036;2023-10-19T05:11:30;93149.84;;;-0.73;75.94
19208;BME280;9737;59.466;18.036;2023-10-19T05:13:58;93176.25;;;-0.70;75.73
19208;BME280;9737;59.466;18.036;2023-10-19T05:16:26;93222.03;;;-0.55;75.84
19208;BME280;9737;59.466;18.036;2023-10-19T05:18:54;93296.38;;;-0.35;76.03
19208;BME280;9737;59.466;18.036;2023-10-19T05:21:23;93324.78;;;-0.26;75.93
19208;BME280;9737;59.466;18.036;2023-10-19T05:23:51;93345.56;;;-0.20;76.18
19208;BME280;9737;59.466;18.036;2023-10-19T05:26:19;93363.75;;;-0.13;76.10
19208;BME280;9737;59.466;18.036;2023-10-19T05:28:47;93390.00;;;-0.08;76.15
19208;BME280;9737;59.466;18.036;2023-10-19T05:31:15;93445.25;;;0.07;76.33
19208;BME280;9737;59.466;18.036;2023-10-19T05:33:43;93454.44;;;0.10;76.12
19208;BME280;9737;59.466;18.036;2023-10-19T05:36:11;93491.50;;;0.18;76.12
19208;BME280;9737;59.466;18.036;2023-10-19T05:38:43;93501.28;;;0.23;76.49
19208;BME280;9737;59.466;18.036;2023-10-19T05:41:11;93508.91;;;0.24;76.38
19208;BME280;9737;59.466;18.036;2023-10-19T05:43:39;93529.75;;;0.31;76.74
19208;BME280;9737;59.466;18.036;2023-10-19T05:46:07;93552.44;;;0.30;76.59
19208;BME280;9737;59.466;18.036;2023-10-19T05:48:35;93560.63;;;0.34;76.49
19208;BME280;9737;59.466;18.036;2023-10-19T05:51:03;93586.47;;;0.42;76.61
19208;BME280;9737;59.466;18.036;2023-10-19T05:53:31;93603.06;;;0.48;76.92
19208;BME280;9737;59.466;18.036;2023-10-19T05:56:00;93612.28;;;0.50;76.44
19208;BME280;9737;59.466;18.036;2023-10-19T05:58:29;93638.16;;;0.58;76.97
19208;BME280;9737;59.466;18.036;2023-10-19T06:00:58;93665.22;;;0.64;77.21
19208;BME280;9737;59.466;18.036;2023-10-19T06:03:26;93667.25;;;0.62;76.70
19208;BME280;9737;59.466;18.036;2023-10-19T06:05:55;93682.06;;;0.68;77.05
19208;BME280;9737;59.466;18.036;2023-10-19T06:08:23;93686.50;;;0.68;77.07
19208;BME280;9737;59.466;18.036;2023-10-19T06:10:52;93708.91;;;0.75;77.23
19208;BME280;9737;59.466;18.036;2023-10-19T06:13:21;93720.53;;;0.79;76.79
19208;BME280;9737;59.466;18.036;2023-10-19T06:15:49;93752.06;;;0.84;77.16
19208;BME280;9737;59.466;18.036;2023-10-19T06:18:18;93782.16;;;0.93;77.02
19208;BME280;9737;59.466;18.036;2023-10-19T06:20:46;93777.34;;;0.90;77.14
19208;BME280;9737;59.466;18.036;2023-10-19T06:23:17;93811.63;;;1.01;77.27
19208;BME280;9737;59.466;18.036;2023-10-19T06:25:45;93829.50;;;1.04;77.17
19208;BME280;9737;59.466;18.036;2023-10-19T06:28:13;93860.19;;;1.15;77.35
19208;BME280;9737;59.466;18.036;2023-10-19T06:30:43;93893.94;;;1.23;77.76
19208;BME280;9737;59.466;18.036;2023-10-19T06:33:11;93908.97;;;1.28;77.72
19208;BME280;9737;59.466;18.036;2023-10-19T06:35:39;93903.53;;;1.29;77.42
19208;BME280;9737;59.466;18.036;2023-10-19T06:38:07;93909.56;;;1.30;77.66
19208;BME280;9737;59.466;18.036;2023-10-19T06:40:36;93922.44;;;1.31;77.69
19208;BME280;9737;59.466;18.036;2023-10-19T06:43:04;93932.88;;;1.31;77.51
19208;BME280;9737;59.466;18.036;2023-10-19T06:45:32;93921.63;;;1.31;77.57
19208;BME280;9737;59.466;18.036;2023-10-19T06:48:03;93944.31;;;1.37;78.01
19208;BME280;9737;59.466;18.036;2023-10-19T06:50:31;93987.09;;;1.49;77.70
19208;BME280;9737;59.466;18.036;2023-10-19T06:52:58;94020.03;;;1.57;77.86
19208;BME280;9737;59.466;18.036;2023-10-19T06:55:26;94031.69;;;1.61;77.48
19208;BME280;9737;59.466;18.036;2023-10-19T06:57:55;94051.75;;;1.67;77.98
19208;BME280;9737;59.466;18.036;2023-10-19T07:00:24;94094.00;;;1.77;77.78
19208;BME280;9737;59.466;18.036;2023-10-19T07:02:55;94125.41;;;1.77;77.73
19208;BME280;9737;59.466;18.036;2023-10-19T07:05:24;94147.84;;;1.91;77.81
19208;BME280;9737;59.466;18.036;2023-10-19T07:07:57;94181.84;;;1.98;77.85
19208;BME280;9737;59.466;18.036;2023-10-19T07:10:27;94221.50;;;2.08;77.82
19208;BME280;9737;59.466;18.036;2023-10-19T07:12:55;94251.66;;;2.17;78.21
19208;BME280;9737;59.466;18.036;2023-10-19T07:15:24;94273.00;;;2.21;78.23
19208;BME280;9737;59.466;18.036;2023-10-19T07:17:53;94303.16;;;2.30;77.84
19208;BME280;9737;59.466;18.036;2023-10-19T07:20:22;94283.03;;;2.24;78.01
19208;BME280;9737;59.466;18.036;2023-10-19T07:22:56;94290.31;;;2.22;78.05
19208;BME280;9737;59.466;18.036;2023-10-19T07:25:26;94344.22;;;2.42;78.23
19208;BME280;9737;59.466;18.036;2023-10-19T07:27:54;94378.84;;;2.51;78.23
19208;BME280;9737;59.466;18.036;2023-10-19T07:30:26;94441.13;;;2.62;78.26
19208;BME280;9737;59.466;18.036;2023-10-19T07:32:54;94480.38;;;2.75;78.31
19208;BME280;9737;59.466;18.036;2023-10-19T07:35:27;94483.00;;;2.75;78.44
19208;BME280;9737;59.466;18.036;2023-10-19T07:38:01;94460.84;;;2.71;78.42
19208;BME280;9737;59.466;18.036;2023-10-19T07:40:30;94460.03;;;2.71;78.56
19208;BME280;9737;59.466;18.036;2023-10-19T07:42:58;94422.56;;;2.57;78.42
19208;BME280;9737;59.466;18.036;2023-10-19T07:45:26;94379.25;;;2.48;78.27
19208;BME280;9737;59.466;18.036;2023-10-19T07:47:55;94344.25;;;2.36;78.45
19208;BME280;9737;59.466;18.036;2023-10-19T07:50:23;94330.56;;;2.34;78.47
19208;BME280;9737;59.466;18.036;2023-10-19T07:52:53;94315.06;;;2.32;78.49
19208;BME280;9737;59.466;18.036;2023-10-19T07:55:22;94352.28;;;2.41;78.26
19208;BME280;9737;59.466;18.036;2023-10-19T07:57:51;94410.47;;;2.56;78.53
19208;BME280;9737;59.466;18.036;2023-10-19T08:00:20;94514.81;;;2.86;78.44
19208;BME280;9737;59.466;18.036;2023-10-19T08:02:50;94586.38;;;3.06;78.30
19208;BME280;9737;59.466;18.036;2023-10-19T08:05:20;94656.97;;;3.21;78.50
19208;BME280;9737;59.466;18.036;2023-10-19T08:07:48;94704.16;;;3.34;78.64
19208;BME280;9737;59.466;18.036;2023-10-19T08:10:17;94744.69;;;3.45;78.63
19208;BME280;9737;59.466;18.036;2023-10-19T08:12:48;94800.63;;;3.58;78.98
19208;BME280;9737;59.466;18.036;2023-10-19T08:15:17;94792.94;;;3.57;78.38
19208;BME280;9737;59.466;18.036;2023-10-19T08:17:48;94797.41;;;3.56;78.62
19208;BME280;9737;59.466;18.036;2023-10-19T08:20:17;94795.38;;;3.58;78.65
19208;BME280;9737;59.466;18.036;2023-10-19T08:22:50;94885.84;;;3.82;78.55
19208;BME280;9737;59.466;18.036;2023-10-19T08:25:19;94903.22;;;3.83;78.78
19208;BME280;9737;59.466;18.036;2023-10-19T08:27:49;94895.53;;;3.82;78.72
19208;BME280;9737;59.466;18.036;2023-10-19T08:30:19;95010.50;;;4.13;78.40
19208;BME280;9737;59.466;18.036;2023-10-19T08:32:52;95087.50;;;4.33;78.84
19208;BME280;9737;59.466;18.036;2023-10-19T08:35:21;95190.88;;;4.60;78.70
19208;BME280;9737;59.466;18.036;2023-10-19T08:37:53;95344.53;;;4.98;78.86
19208;BME280;9737;59.466;18.036;2023-10-19T08:40:21;95478.44;;;5.35;79.21
19208;BME280;9737;59.466;18.036;2023-10-19T08:42:51;95635.59;;;5.75;79.10
19208;BME280;9737;59.466;18.036;2023-10-19T08:45:20;95765.75;;;6.09;79.18
19208;BME280;9737;59.466;18.036;2023-10-19T08:47:53;95959.94;;;6.58;78.63
19208;BME280;9737;59.466;18.036;2023-10-19T08:50:24;96131.00;;;7.03;78.72
19208;BME280;9737;59.466;18.036;2023-10-19T08:52:53;96308.06;;;7.44;79.05
19208;BME280;9737;59.466;18.036;2023-10-19T08:55:21;96584.72;;;8.16;79.21
19208;BME280;9737;59.466;18.036;2023-10-19T08:58:08;96746.59;;;8.56;78.89
19208;BME280;9737;59.466;18.036;2023-10-19T09:00:44;96817.03;;;8.72;79.13
19208;BME280;9737;59.466;18.036;2023-10-19T09:03:14;96730.63;;;8.49;79.18
19208;BME280;9737;59.466;18.036;2023-10-19T09:05:44;96690.25;;;8.41;79.08
19208;BME280;9737;59.466;18.036;2023-10-19T09:08:15;96673.44;;;8.33;79.17
19208;BME280;9737;59.466;18.036;2023-10-19T09:10:44;96741.66;;;8.53;78.99
19208;BME280;9737;59.466;18.036;2023-10-19T09:13:17;97074.03;;;9.37;78.95
19208;BME280;9737;59.466;18.036;2023-10-19T09:15:47;96892.41;;;8.90;79.57
19208;BME280;9737;59.466;18.036;2023-10-19T09:18:17;96714.31;;;8.46;79.33
19208;BME280;9737;59.466;18.036;2023-10-19T09:20:47;96398.72;;;7.66;79.39
19208;BME280;9737;59.466;18.036;2023-10-19T09:23:23;96077.22;;;6.83;79.42
19208;BME280;9737;59.466;18.036;2023-10-19T09:25:56;95913.16;;;6.38;78.68
19208;BME280;9737;59.466;18.036;2023-10-19T09:28:26;95899.97;;;6.38;79.30
19208;BME280;9737;59.466;18.036;2023-10-19T09:30:55;95807.16;;;6.15;79.14
19208;BME280;9737;59.466;18.036;2023-10-19T09:33:23;95806.13;;;6.16;78.60
19208;BME280;9737;59.466;18.036;2023-10-19T09:35:51;96328.63;;;7.49;78.84
19208;BME280;9737;59.466;18.036;2023-10-19T09:38:22;96543.06;;;8.03;78.84
19208;BME280;9737;59.466;18.036;2023-10-19T09:40:53;96425.84;;;7.75;78.76
19208;BME280;9737;59.466;18.036;2023-10-19T09:43:28;96842.97;;;8.76;78.59
19208;BME280;9737;59.466;18.036;2023-10-19T09:46:01;97276.69;;;9.87;78.48
19208;BME280;9737;59.466;18.036;2023-10-19T09:48:30;97571.66;;;10.59;78.92
19208;BME280;9737;59.466;18.036;2023-10-19T09:51:02;97817.00;;;11.20;79.00
19208;BME280;9737;59.466;18.036;2023-10-19T09:53:31;97927.56;;;11.45;79.16
19208;BME280;9737;59.466;18.036;2023-10-19T09:56:00;97527.78;;;10.48;78.79
19208;BME280;9737;59.466;18.036;2023-10-19T09:58:44;97346.22;;;9.97;78.00
19208;BME280;9737;59.466;18.036;2023-10-19T10:01:12;97450.00;;;10.25;78.96
19208;BME280;9737;59.466;18.036;2023-10-19T10:03:45;97403.09;;;10.17;78.61
19208;BME280;9737;59.466;18.036;2023-10-19T10:06:14;97486.53;;;10.38;78.73
19208;BME280;9737;59.466;18.036;2023-10-19T10:08:43;97556.91;;;10.57;78.54
19208;BME280;9737;59.466;18.036;2023-10-19T10:11:22;97880.75;;;11.36;78.59
19208;BME280;9737;59.466;18.036;2023-10-19T10:13:55;98063.25;;;11.76;78.29
19208;BME280;9737;59.466;18.036;2023-10-19T10:16:24;97929.28;;;11.38;78.12
19208;BME280;9737;59.466;18.036;2023-10-19T10:18:55;97825.19;;;11.18;78.50
19208;BME280;9737;59.466;18.036;2023-10-19T10:21:27;97707.72;;;10.92;78.07
19208;BME280;9737;59.466;18.036;2023-10-19T10:23:57;97417.66;;;10.21;78.43
19208;BME280;9737;59.466;18.036;2023-10-19T10:26:27;97022.00;;;9.21;77.85
19208;BME280;9737;59.466;18.036;2023-10-19T10:29:12;96772.25;;;8.55;78.11
19208;BME280;9737;59.466;18.036;2023-10-19T10:31:42;96663.84;;;8.32;77.80
19208;BME280;9737;59.466;18.036;2023-10-19T10:34:12;96525.50;;;7.96;77.84
19208;BME280;9737;59.466;18.036;2023-10-19T10:36:59;96350.41;;;7.51;77.50
19208;BME280;9737;59.466;18.036;2023-10-19T10:39:30;96085.78;;;6.85;77.79
19208;BME280;9737;59.466;18.036;2023-10-19T10:41:59;95821.56;;;6.19;76.97
19208;BME280;9737;59.466;18.036;2023-10-19T10:44:39;95692.00;;;5.87;77.58
19208;BME280;9737;59.466;18.036;2023-10-19T10:47:08;95549.56;;;5.48;77.37
19208;BME280;9737;59.466;18.036;2023-10-19T10:49:47;95526.47;;;5.43;76.87
19208;BME280;9737;59.466;18.036;2023-10-19T10:52:23;95548.41;;;5.50;77.27
19208;BME280;9737;59.466;18.036;2023-10-19T10:54:52;95569.88;;;5.54;76.89
19208;BME280;9737;59.466;18.036;2023-10-19T10:57:20;95526.47;;;5.43;77.03
19208;BME280;9737;59.466;18.036;2023-10-19T11:00:00;95541.50;;;5.49;76.87
19208;BME280;9737;59.466;18.036;2023-10-19T11:02:30;95533.78;;;5.48;76.54
19208;BME280;9737;59.466;18.036;2023-10-19T11:04:59;95550.84;;;5.52;76.44
19208;BME280;9737;59.466;18.036;2023-10-19T11:07:27;95610.44;;;5.66;76.94
19208;BME280;9737;59.466;18.036;2023-10-19T11:09:58;95717.22;;;5.97;76.35
19208;BME280;9737;59.466;18.036;2023-10-19T11:12:26;95696.91;;;5.90;76.26
19208;BME280;9737;59.466;18.036;2023-10-19T11:14:57;95631.34;;;5.74;76.51
19208;BME280;9737;59.466;18.036;2023-10-19T11:17:28;95549.22;;;5.51;75.89
19208;BME280;9737;59.466;18.036;2023-10-19T11:19:59;95535.00;;;5.45;76.53
19208;BME280;9737;59.466;18.036;2023-10-19T11:22:27;95596.66;;;5.64;75.88
19208;BME280;9737;59.466;18.036;2023-10-19T11:25:17;95638.03;;;5.77;76.39
19208;BME280;9737;59.466;18.036;2023-10-19T11:27:45;95627.88;;;5.74;75.61
19208;BME280;9737;59.466;18.036;2023-10-19T11:30:22;95666.25;;;5.83;75.66
19208;BME280;9737;59.466;18.036;2023-10-19T11:32:51;95680.28;;;5.90;75.93
19208;BME280;9737;59.466;18.036;2023-10-19T11:35:24;95636.59;;;5.74;76.15
19208;BME280;9737;59.466;18.036;2023-10-19T11:37:53;95556.72;;;5.54;76.22
19208;BME280;9737;59.466;18.036;2023-10-19T11:40:23;95374.09;;;5.07;75.37
19208;BME280;9737;59.466;18.036;2023-10-19T11:42:52;95302.78;;;4.89;75.85
19208;BME280;9737;59.466;18.036;2023-10-19T11:45:24;95351.81;;;5.03;75.61
19208;BME280;9737;59.466;18.036;2023-10-19T11:47:52;95335.41;;;5.01;75.38
19208;BME280;9737;59.466;18.036;2023-10-19T11:50:21;95217.81;;;4.69;75.57
19208;BME280;9737;59.466;18.036;2023-10-19T11:52:49;95141.50;;;4.49;75.36
19208;BME280;9737;59.466;18.036;2023-10-19T11:55:17;95100.06;;;4.38;75.20
19208;BME280;9737;59.466;18.036;2023-10-19T11:57:45;95046.66;;;4.24;75.52
19208;BME280;9737;59.466;18.036;2023-10-19T12:00:13;94965.41;;;4.02;75.33
19208;BME280;9737;59.466;18.036;2023-10-19T12:02:50;94998.38;;;4.12;75.32
19208;BME280;9737;59.466;18.036;2023-10-19T12:05:18;95034.75;;;4.21;75.02
19208;BME280;9737;59.466;18.036;2023-10-19T12:07:46;95091.97;;;4.39;75.29
19208;BME280;9737;59.466;18.036;2023-10-19T12:10:14;95142.94;;;4.51;75.24
19208;BME280;9737;59.466;18.036;2023-10-19T12:12:43;95192.91;;;4.64;75.30
19208;BME280;9737;59.466;18.036;2023-10-19T12:15:27;95315.38;;;4.93;74.98
19208;BME280;9737;59.466;18.036;2023-10-19T12:17:56;95724.31;;;6.03;75.28
19208;BME280;9737;59.466;18.036;2023-10-19T12:20:24;96317.13;;;7.57;75.03
19208;BME280;9737;59.466;18.036;2023-10-19T12:22:52;96832.88;;;8.86;75.38
19208;BME280;9737;59.466;18.036;2023-10-19T12:25:21;96602.09;;;8.25;75.16
19208;BME280;9737;59.466;18.036;2023-10-19T12:28:15;96559.25;;;8.15;75.17
19208;BME280;9737;59.466;18.036;2023-10-19T12:30:43;96636.19;;;8.35;75.57
19208;BME280;9737;59.466;18.036;2023-10-19T12:33:13;96228.72;;;7.31;75.18
19208;BME280;9737;59.466;18.036;2023-10-19T12:35:41;96080.97;;;6.95;74.91
19208;BME280;9737;59.466;18.036;2023-10-19T12:38:16;96077.69;;;6.93;75.03
19208;BME280;9737;59.466;18.036;2023-10-19T12:40:44;96182.47;;;7.21;74.91
19208;BME280;9737;59.466;18.036;2023-10-19T12:43:14;96640.28;;;8.37;74.82
19208;BME280;9737;59.466;18.036;2023-10-19T12:45:42;97057.34;;;9.43;75.23
19208;BME280;9737;59.466;18.036;2023-10-19T12:48:16;97442.84;;;10.40;74.51
19208;BME280;9737;59.466;18.036;2023-10-19T12:50:44;97762.53;;;11.16;74.98
19208;BME280;9737;59.466;18.036;2023-10-19T12:53:12;98202.94;;;12.28;75.13
19208;BME280;9737;59.466;18.036;2023-10-19T12:55:41;98027.75;;;11.84;75.03
19208;BME280;9737;59.466;18.036;2023-10-19T12:58:10;97759.88;;;11.16;75.36
19208;BME280;9737;59.466;18.036;2023-10-19T13:00:38;97692.72;;;10.99;74.89
19208;BME280;9737;59.466;18.036;2023-10-19T13:03:11;97733.00;;;11.11;75.08
19208;BME280;9737;59.466;18.036;2023-10-19T13:05:44;97578.84;;;10.73;75.16
19208;BME280;9737;59.466;18.036;2023-10-19T13:08:13;97857.06;;;11.41;75.06
19208;BME280;9737;59.466;18.036;2023-10-19T13:10:42;98129.81;;;12.07;74.68
19208;BME280;9737;59.466;18.036;2023-10-19T13:13:12;98352.88;;;12.53;74.92
19208;BME280;9737;59.466;18.036;2023-10-19T13:15:43;98364.63;;;12.66;74.71
19208;BME280;9737;59.466;18.036;2023-10-19T13:18:12;98152.41;;;12.12;74.90
19208;BME280;9737;59.466;18.036;2023-10-19T13:20:48;98104.72;;;12.02;74.51
19208;BME280;9737;59.466;18.036;2023-10-19T13:23:16;98141.75;;;12.12;74.45
19208;BME280;9737;59.466;18.036;2023-10-19T13:25:49;98050.38;;;11.88;74.35